Hlavní strana
METAR-TAF:

METAR-TAF

Letiště :

Béchar, Alžírsko

zeměpisná šířka: 31-37N, zeměpisná délka: 002-14W, výška: 773 m

Aktuální stav počasí

Zpráva byla vytvořena před 44 minutami, v 09:00 UTC
Východojihovýchodní vítr 10 kt
Teplota 21°C
Vlhkost vzduchu 43%
Tlak 1019 hPa
Viditelnost 10 km a více
Polojasno ve výšce 3300 ft

METAR: DAOR 100900Z 11010KT 9999 SCT033 21/08 Q1019

Čas: 10:44 (09:44 UTC)

Předpověď počasí

Zpráva byla vytvořena před 1 hodinou a 44 minutami, v 08:00 UTC
Předpověď platná od 10 v 09 UTC do 10 v 18 UTC
Východoseverovýchodní vítr 14 kt
Viditelnost: 8000 m
Polojasno ve výšce 3300 ft
Polojasno ve výšce 10000 ft
Pravděpodobnost 30% :
Dočasný
od 10 v 09 UTC do 10 v 12 UTC
Viditelnost: 4000 m
Skoro jasno ve výšce 3000 ft, Vertikální cumulus.
rozsáhlý prach

TAF: DAOR 100800Z 1009/1018 06014KT 8000 SCT033 SCT100 PROB30 TEMPO 1009/1012 4000 DU FEW030TCU

Stav a předpovědi počasí z více než 4 000 letišť (zprávy METAR a TAF).

Červené a žluté tečky na mapě představují dostupné meteorologické stanice.

Když kurzor umístíte na tečku, zobrazí se název stanice.

Pak kliknutím zobrazíte stav a předpověď počasí.

Chcete-li změnit mapu, kliknutím na zelené tlačítko se znaménkem +mapu přiblížíte, kliknutím na zelené tlačítko se znaménkem – mapu oddálíte a kliknutím na zelené šipky přejdete na sousední mapy.


METAR-TAF: